sensor_id;sensor_type;location;lat;lon;timestamp;pressure;altitude;pressure_sealevel;temperature;humidity
15050;BME280;7622;42.724;23.250;2023-07-08T00:00:53;94919.94;;;19.38;100.00
15050;BME280;7622;42.724;23.250;2023-07-08T00:03:21;94917.59;;;19.43;100.00
15050;BME280;7622;42.724;23.250;2023-07-08T00:05:50;94910.59;;;19.28;100.00
15050;BME280;7622;42.724;23.250;2023-07-08T00:08:20;94909.91;;;19.20;100.00
15050;BME280;7622;42.724;23.250;2023-07-08T00:10:49;94909.03;;;19.13;100.00
15050;BME280;7622;42.724;23.250;2023-07-08T00:13:15;94911.72;;;19.19;100.00
15050;BME280;7622;42.724;23.250;2023-07-08T00:15:44;94893.59;;;19.10;100.00
15050;BME280;7622;42.724;23.250;2023-07-08T00:18:12;94897.50;;;19.14;100.00
15050;BME280;7622;42.724;23.250;2023-07-08T00:20:42;94904.44;;;19.21;100.00
15050;BME280;7622;42.724;23.250;2023-07-08T00:23:09;94890.75;;;19.33;100.00
15050;BME280;7622;42.724;23.250;2023-07-08T00:25:37;94895.59;;;19.29;100.00
15050;BME280;7622;42.724;23.250;2023-07-08T00:28:08;94912.94;;;19.23;100.00
15050;BME280;7622;42.724;23.250;2023-07-08T00:30:35;94914.81;;;19.29;100.00
15050;BME280;7622;42.724;23.250;2023-07-08T00:33:02;94900.47;;;19.32;100.00
15050;BME280;7622;42.724;23.250;2023-07-08T00:35:31;94894.13;;;19.26;100.00
15050;BME280;7622;42.724;23.250;2023-07-08T00:37:59;94890.75;;;19.33;100.00
15050;BME280;7622;42.724;23.250;2023-07-08T00:40:29;94888.28;;;19.31;100.00
15050;BME280;7622;42.724;23.250;2023-07-08T00:42:58;94852.66;;;19.07;100.00
15050;BME280;7622;42.724;23.250;2023-07-08T00:45:38;94881.59;;;19.28;100.00
15050;BME280;7622;42.724;23.250;2023-07-08T00:48:14;94882.09;;;19.17;100.00
15050;BME280;7622;42.724;23.250;2023-07-08T00:50:42;94880.81;;;19.07;100.00
15050;BME280;7622;42.724;23.250;2023-07-08T00:53:25;94876.69;;;18.98;100.00
15050;BME280;7622;42.724;23.250;2023-07-08T00:55:54;94880.78;;;18.79;100.00
15050;BME280;7622;42.724;23.250;2023-07-08T00:58:23;94876.97;;;18.88;100.00
15050;BME280;7622;42.724;23.250;2023-07-08T01:00:54;94876.75;;;18.83;100.00
15050;BME280;7622;42.724;23.250;2023-07-08T01:03:23;94868.16;;;18.96;100.00
15050;BME280;7622;42.724;23.250;2023-07-08T01:05:53;94873.47;;;19.02;100.00
15050;BME280;7622;42.724;23.250;2023-07-08T01:08:26;94869.09;;;18.88;100.00
15050;BME280;7622;42.724;23.250;2023-07-08T01:10:59;94872.69;;;18.80;100.00
15050;BME280;7622;42.724;23.250;2023-07-08T01:13:29;94859.72;;;18.79;100.00
15050;BME280;7622;42.724;23.250;2023-07-08T01:15:58;94861.81;;;18.90;100.00
15050;BME280;7622;42.724;23.250;2023-07-08T01:18:25;94865.72;;;18.94;100.00
15050;BME280;7622;42.724;23.250;2023-07-08T01:20:52;94862.16;;;18.80;100.00
15050;BME280;7622;42.724;23.250;2023-07-08T01:23:22;94867.50;;;18.87;100.00
15050;BME280;7622;42.724;23.250;2023-07-08T01:25:49;94856.19;;;18.72;100.00
15050;BME280;7622;42.724;23.250;2023-07-08T01:28:16;94856.44;;;18.77;100.00
15050;BME280;7622;42.724;23.250;2023-07-08T01:30:44;94863.47;;;18.70;100.00
15050;BME280;7622;42.724;23.250;2023-07-08T01:33:16;94867.50;;;18.66;100.00
15050;BME280;7622;42.724;23.250;2023-07-08T01:35:45;94874.88;;;18.77;100.00
15050;BME280;7622;42.724;23.250;2023-07-08T01:38:16;94871.28;;;18.84;100.00
15050;BME280;7622;42.724;23.250;2023-07-08T01:40:51;94869.97;;;18.95;100.00
15050;BME280;7622;42.724;23.250;2023-07-08T01:43:18;94856.63;;;18.97;100.00
15050;BME280;7622;42.724;23.250;2023-07-08T01:45:45;94858.00;;;18.93;100.00
15050;BME280;7622;42.724;23.250;2023-07-08T01:48:14;94860.41;;;18.87;100.00
15050;BME280;7622;42.724;23.250;2023-07-08T01:50:43;94864.22;;;18.85;100.00
15050;BME280;7622;42.724;23.250;2023-07-08T01:53:15;94827.75;;;18.61;100.00
15050;BME280;7622;42.724;23.250;2023-07-08T01:55:43;94860.06;;;18.76;100.00
15050;BME280;7622;42.724;23.250;2023-07-08T01:58:11;94857.97;;;18.86;100.00
15050;BME280;7622;42.724;23.250;2023-07-08T02:00:38;94846.72;;;18.77;100.00
15050;BME280;7622;42.724;23.250;2023-07-08T02:03:04;94852.56;;;18.73;100.00
15050;BME280;7622;42.724;23.250;2023-07-08T02:05:31;94855.50;;;18.84;100.00
15050;BME280;7622;42.724;23.250;2023-07-08T02:07:58;94858.31;;;18.83;100.00
15050;BME280;7622;42.724;23.250;2023-07-08T02:10:25;94848.44;;;18.85;100.00
15050;BME280;7622;42.724;23.250;2023-07-08T02:12:52;94861.59;;;18.64;100.00
15050;BME280;7622;42.724;23.250;2023-07-08T02:15:20;94863.53;;;18.76;100.00
15050;BME280;7622;42.724;23.250;2023-07-08T02:17:46;94854.94;;;18.68;100.00
15050;BME280;7622;42.724;23.250;2023-07-08T02:20:14;94865.97;;;18.78;100.00
15050;BME280;7622;42.724;23.250;2023-07-08T02:22:42;94856.56;;;18.69;100.00
15050;BME280;7622;42.724;23.250;2023-07-08T02:25:08;94852.94;;;18.70;100.00
15050;BME280;7622;42.724;23.250;2023-07-08T02:27:36;94850.91;;;18.50;100.00
15050;BME280;7622;42.724;23.250;2023-07-08T02:30:03;94860.34;;;18.60;100.00
15050;BME280;7622;42.724;23.250;2023-07-08T02:32:33;94868.31;;;18.66;100.00
15050;BME280;7622;42.724;23.250;2023-07-08T02:35:01;94851.19;;;18.56;100.00
15050;BME280;7622;42.724;23.250;2023-07-08T02:37:28;94859.44;;;18.53;100.00
15050;BME280;7622;42.724;23.250;2023-07-08T02:39:55;94875.50;;;18.58;100.00
15050;BME280;7622;42.724;23.250;2023-07-08T02:42:22;94876.81;;;18.54;100.00
15050;BME280;7622;42.724;23.250;2023-07-08T02:44:48;94876.81;;;18.54;100.00
15050;BME280;7622;42.724;23.250;2023-07-08T02:47:15;94885.16;;;18.72;100.00
15050;BME280;7622;42.724;23.250;2023-07-08T02:49:44;94882.00;;;18.62;100.00
15050;BME280;7622;42.724;23.250;2023-07-08T02:52:11;94909.88;;;18.56;100.00
15050;BME280;7622;42.724;23.250;2023-07-08T02:54:37;94906.78;;;18.53;100.00
15050;BME280;7622;42.724;23.250;2023-07-08T02:57:04;94903.22;;;18.60;100.00
15050;BME280;7622;42.724;23.250;2023-07-08T02:59:31;94905.88;;;18.81;100.00
15050;BME280;7622;42.724;23.250;2023-07-08T03:01:58;94915.34;;;18.76;100.00
15050;BME280;7622;42.724;23.250;2023-07-08T03:04:25;94906.84;;;18.74;100.00
15050;BME280;7622;42.724;23.250;2023-07-08T03:06:53;94909.97;;;18.84;100.00
15050;BME280;7622;42.724;23.250;2023-07-08T03:09:19;94897.31;;;18.73;100.00
15050;BME280;7622;42.724;23.250;2023-07-08T03:11:46;94895.22;;;18.68;100.00
15050;BME280;7622;42.724;23.250;2023-07-08T03:14:13;94905.31;;;18.65;100.00
15050;BME280;7622;42.724;23.250;2023-07-08T03:16:40;94895.03;;;18.70;100.00
15050;BME280;7622;42.724;23.250;2023-07-08T03:19:08;94905.69;;;18.83;100.00
15050;BME280;7622;42.724;23.250;2023-07-08T03:21:36;94893.88;;;18.72;100.00
15050;BME280;7622;42.724;23.250;2023-07-08T03:24:05;94900.06;;;18.65;100.00
15050;BME280;7622;42.724;23.250;2023-07-08T03:26:32;94906.97;;;18.87;100.00
15050;BME280;7622;42.724;23.250;2023-07-08T03:28:59;94901.63;;;19.02;100.00
15050;BME280;7622;42.724;23.250;2023-07-08T03:31:26;94893.41;;;19.11;100.00
15050;BME280;7622;42.724;23.250;2023-07-08T03:33:53;94906.69;;;19.24;100.00
15050;BME280;7622;42.724;23.250;2023-07-08T03:36:20;94877.06;;;19.22;100.00
15050;BME280;7622;42.724;23.250;2023-07-08T03:38:50;94903.38;;;19.44;100.00
15050;BME280;7622;42.724;23.250;2023-07-08T03:41:19;94891.84;;;19.45;100.00
15050;BME280;7622;42.724;23.250;2023-07-08T03:43:45;94909.81;;;19.56;100.00
15050;BME280;7622;42.724;23.250;2023-07-08T03:46:13;94907.97;;;19.56;100.00
15050;BME280;7622;42.724;23.250;2023-07-08T03:48:40;94882.78;;;19.47;100.00
15050;BME280;7622;42.724;23.250;2023-07-08T03:51:09;94901.50;;;19.59;100.00
15050;BME280;7622;42.724;23.250;2023-07-08T03:53:40;94907.25;;;19.69;100.00
15050;BME280;7622;42.724;23.250;2023-07-08T03:56:08;94896.63;;;19.56;100.00
15050;BME280;7622;42.724;23.250;2023-07-08T03:58:39;94869.88;;;19.59;100.00
15050;BME280;7622;42.724;23.250;2023-07-08T04:01:09;94867.38;;;19.85;100.00
15050;BME280;7622;42.724;23.250;2023-07-08T04:03:39;94889.25;;;20.20;100.00
15050;BME280;7622;42.724;23.250;2023-07-08T04:06:06;94888.59;;;20.46;100.00
15050;BME280;7622;42.724;23.250;2023-07-08T04:08:33;94902.47;;;20.74;100.00
15050;BME280;7622;42.724;23.250;2023-07-08T04:11:00;94906.16;;;20.93;100.00
15050;BME280;7622;42.724;23.250;2023-07-08T04:13:26;94906.59;;;21.23;100.00
15050;BME280;7622;42.724;23.250;2023-07-08T04:15:57;94893.19;;;21.18;100.00
15050;BME280;7622;42.724;23.250;2023-07-08T04:18:25;94915.53;;;21.75;100.00
15050;BME280;7622;42.724;23.250;2023-07-08T04:20:52;94915.13;;;22.04;100.00
15050;BME280;7622;42.724;23.250;2023-07-08T04:23:19;94910.59;;;22.18;100.00
15050;BME280;7622;42.724;23.250;2023-07-08T04:25:46;94886.19;;;22.09;100.00
15050;BME280;7622;42.724;23.250;2023-07-08T04:28:14;94917.78;;;22.49;100.00
15050;BME280;7622;42.724;23.250;2023-07-08T04:30:41;94924.34;;;22.46;100.00
15050;BME280;7622;42.724;23.250;2023-07-08T04:33:12;94915.88;;;22.24;100.00
15050;BME280;7622;42.724;23.250;2023-07-08T04:35:39;94923.94;;;22.43;100.00
15050;BME280;7622;42.724;23.250;2023-07-08T04:38:07;94924.06;;;22.61;100.00
15050;BME280;7622;42.724;23.250;2023-07-08T04:40:40;94933.59;;;22.75;100.00
15050;BME280;7622;42.724;23.250;2023-07-08T04:43:07;94934.41;;;22.69;100.00
15050;BME280;7622;42.724;23.250;2023-07-08T04:45:36;94928.75;;;22.59;100.00
15050;BME280;7622;42.724;23.250;2023-07-08T04:48:04;94926.31;;;22.57;100.00
15050;BME280;7622;42.724;23.250;2023-07-08T04:50:39;94925.50;;;22.57;100.00
15050;BME280;7622;42.724;23.250;2023-07-08T04:53:06;94937.66;;;22.71;100.00
15050;BME280;7622;42.724;23.250;2023-07-08T04:55:33;94935.22;;;22.76;100.00
15050;BME280;7622;42.724;23.250;2023-07-08T04:58:00;94934.91;;;22.53;100.00
15050;BME280;7622;42.724;23.250;2023-07-08T05:00:28;94933.22;;;22.65;100.00
15050;BME280;7622;42.724;23.250;2023-07-08T05:02:55;94935.66;;;22.73;100.00
15050;BME280;7622;42.724;23.250;2023-07-08T05:05:21;94935.69;;;22.60;100.00
15050;BME280;7622;42.724;23.250;2023-07-08T05:07:50;94942.59;;;22.74;100.00
15050;BME280;7622;42.724;23.250;2023-07-08T05:10:16;94936.56;;;22.40;100.00
15050;BME280;7622;42.724;23.250;2023-07-08T05:12:43;94931.66;;;22.51;100.00
15050;BME280;7622;42.724;23.250;2023-07-08T05:15:11;94941.84;;;22.54;100.00
15050;BME280;7622;42.724;23.250;2023-07-08T05:17:39;94873.34;;;22.19;100.00
15050;BME280;7622;42.724;23.250;2023-07-08T05:20:07;94938.69;;;22.70;100.00
15050;BME280;7622;42.724;23.250;2023-07-08T05:22:34;94951.59;;;22.60;100.00
15050;BME280;7622;42.724;23.250;2023-07-08T05:25:03;94942.34;;;22.69;100.00
15050;BME280;7622;42.724;23.250;2023-07-08T05:27:30;94907.50;;;22.72;100.00
15050;BME280;7622;42.724;23.250;2023-07-08T05:29:58;94953.53;;;22.84;100.00
15050;BME280;7622;42.724;23.250;2023-07-08T05:32:25;94936.03;;;22.76;100.00
15050;BME280;7622;42.724;23.250;2023-07-08T05:34:53;94953.84;;;23.01;100.00
15050;BME280;7622;42.724;23.250;2023-07-08T05:37:20;94947.00;;;22.87;100.00
15050;BME280;7622;42.724;23.250;2023-07-08T05:39:50;94958.72;;;23.04;100.00
15050;BME280;7622;42.724;23.250;2023-07-08T05:42:19;94950.91;;;23.15;100.00
15050;BME280;7622;42.724;23.250;2023-07-08T05:44:46;94952.66;;;23.84;100.00
15050;BME280;7622;42.724;23.250;2023-07-08T05:47:14;94956.69;;;24.12;100.00
15050;BME280;7622;42.724;23.250;2023-07-08T05:49:41;94964.41;;;24.20;100.00
15050;BME280;7622;42.724;23.250;2023-07-08T05:52:08;94969.06;;;24.18;100.00
15050;BME280;7622;42.724;23.250;2023-07-08T05:54:36;94967.59;;;24.04;100.00
15050;BME280;7622;42.724;23.250;2023-07-08T05:57:04;94967.03;;;23.95;100.00
15050;BME280;7622;42.724;23.250;2023-07-08T05:59:33;94954.16;;;23.74;100.00
15050;BME280;7622;42.724;23.250;2023-07-08T06:02:00;94968.50;;;23.66;100.00
15050;BME280;7622;42.724;23.250;2023-07-08T06:04:27;94974.00;;;23.40;100.00
15050;BME280;7622;42.724;23.250;2023-07-08T06:06:54;94973.09;;;23.52;100.00
15050;BME280;7622;42.724;23.250;2023-07-08T06:09:21;94980.38;;;23.88;100.00
15050;BME280;7622;42.724;23.250;2023-07-08T06:11:47;94980.97;;;23.90;100.00
15050;BME280;7622;42.724;23.250;2023-07-08T06:14:14;94983.50;;;24.04;100.00
15050;BME280;7622;42.724;23.250;2023-07-08T06:16:42;94976.63;;;24.57;100.00
15050;BME280;7622;42.724;23.250;2023-07-08T06:19:09;94983.88;;;24.68;100.00
15050;BME280;7622;42.724;23.250;2023-07-08T06:21:36;94985.06;;;24.72;100.00
15050;BME280;7622;42.724;23.250;2023-07-08T06:24:03;94928.41;;;24.24;100.00
15050;BME280;7622;42.724;23.250;2023-07-08T06:26:30;94997.75;;;25.07;100.00
15050;BME280;7622;42.724;23.250;2023-07-08T06:28:57;94997.22;;;25.17;100.00
15050;BME280;7622;42.724;23.250;2023-07-08T06:31:23;94994.41;;;25.83;100.00
15050;BME280;7622;42.724;23.250;2023-07-08T06:33:51;94997.56;;;25.50;100.00
15050;BME280;7622;42.724;23.250;2023-07-08T06:36:18;94983.31;;;25.44;100.00
15050;BME280;7622;42.724;23.250;2023-07-08T06:38:45;94982.03;;;25.17;100.00
15050;BME280;7622;42.724;23.250;2023-07-08T06:41:12;94986.91;;;24.90;100.00
15050;BME280;7622;42.724;23.250;2023-07-08T06:43:38;94988.00;;;25.61;100.00
15050;BME280;7622;42.724;23.250;2023-07-08T06:46:05;94975.50;;;25.73;100.00
15050;BME280;7622;42.724;23.250;2023-07-08T06:48:32;94987.84;;;25.56;100.00
15050;BME280;7622;42.724;23.250;2023-07-08T06:51:00;94995.75;;;25.62;100.00
15050;BME280;7622;42.724;23.250;2023-07-08T06:53:27;94987.19;;;25.60;100.00
15050;BME280;7622;42.724;23.250;2023-07-08T06:55:54;94991.94;;;25.58;100.00
15050;BME280;7622;42.724;23.250;2023-07-08T06:58:20;94991.16;;;25.81;100.00
15050;BME280;7622;42.724;23.250;2023-07-08T07:00:47;94968.38;;;25.85;100.00
15050;BME280;7622;42.724;23.250;2023-07-08T07:03:14;94997.81;;;26.37;98.52
15050;BME280;7622;42.724;23.250;2023-07-08T07:05:40;94999.66;;;26.24;99.49
15050;BME280;7622;42.724;23.250;2023-07-08T07:08:09;94993.50;;;26.24;100.00
15050;BME280;7622;42.724;23.250;2023-07-08T07:10:36;95004.22;;;25.71;100.00
15050;BME280;7622;42.724;23.250;2023-07-08T07:13:03;95010.09;;;25.73;100.00
15050;BME280;7622;42.724;23.250;2023-07-08T07:15:30;95000.75;;;25.82;100.00
15050;BME280;7622;42.724;23.250;2023-07-08T07:17:57;95002.72;;;25.86;100.00
15050;BME280;7622;42.724;23.250;2023-07-08T07:20:24;95017.94;;;25.56;100.00
15050;BME280;7622;42.724;23.250;2023-07-08T07:22:51;95020.50;;;25.03;100.00
15050;BME280;7622;42.724;23.250;2023-07-08T07:25:20;95019.22;;;24.51;100.00
15050;BME280;7622;42.724;23.250;2023-07-08T07:27:47;95032.84;;;24.11;100.00
15050;BME280;7622;42.724;23.250;2023-07-08T07:30:14;95032.94;;;23.73;100.00
15050;BME280;7622;42.724;23.250;2023-07-08T07:32:41;95033.81;;;23.67;100.00
15050;BME280;7622;42.724;23.250;2023-07-08T07:35:09;95026.78;;;23.79;100.00
15050;BME280;7622;42.724;23.250;2023-07-08T07:37:38;95028.91;;;23.71;100.00
15050;BME280;7622;42.724;23.250;2023-07-08T07:40:06;95030.75;;;23.70;100.00
15050;BME280;7622;42.724;23.250;2023-07-08T07:42:39;95024.31;;;23.84;100.00
15050;BME280;7622;42.724;23.250;2023-07-08T07:45:07;95030.78;;;24.20;100.00
15050;BME280;7622;42.724;23.250;2023-07-08T07:47:34;95020.44;;;23.80;100.00
15050;BME280;7622;42.724;23.250;2023-07-08T07:50:01;95015.34;;;23.54;100.00
15050;BME280;7622;42.724;23.250;2023-07-08T07:52:28;95030.06;;;23.50;100.00
15050;BME280;7622;42.724;23.250;2023-07-08T07:54:55;95031.31;;;23.41;100.00
15050;BME280;7622;42.724;23.250;2023-07-08T07:57:22;95026.72;;;23.23;100.00
15050;BME280;7622;42.724;23.250;2023-07-08T07:59:51;95029.22;;;23.11;100.00
15050;BME280;7622;42.724;23.250;2023-07-08T08:02:18;95029.06;;;23.38;100.00
15050;BME280;7622;42.724;23.250;2023-07-08T08:04:45;95034.09;;;23.14;100.00
15050;BME280;7622;42.724;23.250;2023-07-08T08:07:12;95034.25;;;23.26;100.00
15050;BME280;7622;42.724;23.250;2023-07-08T08:09:38;95031.28;;;23.09;100.00
15050;BME280;7622;42.724;23.250;2023-07-08T08:12:07;95036.41;;;22.98;100.00
15050;BME280;7622;42.724;23.250;2023-07-08T08:14:34;95010.00;;;23.23;100.00
15050;BME280;7622;42.724;23.250;2023-07-08T08:17:03;95024.56;;;23.38;100.00
15050;BME280;7622;42.724;23.250;2023-07-08T08:19:30;95028.25;;;23.44;100.00
15050;BME280;7622;42.724;23.250;2023-07-08T08:21:57;95021.09;;;23.38;100.00
15050;BME280;7622;42.724;23.250;2023-07-08T08:24:24;95025.66;;;24.18;100.00
15050;BME280;7622;42.724;23.250;2023-07-08T08:26:51;95026.41;;;24.68;100.00
15050;BME280;7622;42.724;23.250;2023-07-08T08:29:18;95031.91;;;25.22;100.00
15050;BME280;7622;42.724;23.250;2023-07-08T08:31:44;95030.03;;;25.70;100.00
15050;BME280;7622;42.724;23.250;2023-07-08T08:34:12;95031.59;;;26.13;100.00
15050;BME280;7622;42.724;23.250;2023-07-08T08:36:39;95025.22;;;26.14;99.45
15050;BME280;7622;42.724;23.250;2023-07-08T08:39:06;95029.56;;;26.26;99.96
15050;BME280;7622;42.724;23.250;2023-07-08T08:41:35;95021.75;;;26.72;96.26
15050;BME280;7622;42.724;23.250;2023-07-08T08:44:03;95018.59;;;26.86;94.39
15050;BME280;7622;42.724;23.250;2023-07-08T08:46:36;95014.38;;;27.14;91.61
15050;BME280;7622;42.724;23.250;2023-07-08T08:49:12;95010.19;;;27.18;95.75
15050;BME280;7622;42.724;23.250;2023-07-08T08:51:42;95002.91;;;27.13;89.00
15050;BME280;7622;42.724;23.250;2023-07-08T08:54:09;95010.06;;;27.24;88.83
15050;BME280;7622;42.724;23.250;2023-07-08T08:56:39;95017.38;;;27.57;90.13
15050;BME280;7622;42.724;23.250;2023-07-08T08:59:14;95010.47;;;27.33;92.09
15050;BME280;7622;42.724;23.250;2023-07-08T09:01:44;95018.19;;;27.74;89.40
15050;BME280;7622;42.724;23.250;2023-07-08T09:04:17;95026.09;;;27.41;91.92
15050;BME280;7622;42.724;23.250;2023-07-08T09:06:48;95023.09;;;27.09;92.80
15050;BME280;7622;42.724;23.250;2023-07-08T09:09:19;95016.09;;;26.56;97.22
15050;BME280;7622;42.724;23.250;2023-07-08T09:11:51;95018.75;;;26.21;98.00
15050;BME280;7622;42.724;23.250;2023-07-08T09:14:23;95017.66;;;25.87;98.48
15050;BME280;7622;42.724;23.250;2023-07-08T09:16:56;95022.00;;;25.59;100.00
15050;BME280;7622;42.724;23.250;2023-07-08T09:19:26;95016.50;;;25.72;100.00
15050;BME280;7622;42.724;23.250;2023-07-08T09:22:00;95020.63;;;25.68;100.00
15050;BME280;7622;42.724;23.250;2023-07-08T09:24:33;95026.06;;;25.61;100.00
15050;BME280;7622;42.724;23.250;2023-07-08T09:27:02;95013.34;;;25.33;100.00
15050;BME280;7622;42.724;23.250;2023-07-08T09:29:31;95017.97;;;25.38;100.00
15050;BME280;7622;42.724;23.250;2023-07-08T09:31:59;95010.16;;;25.25;100.00
15050;BME280;7622;42.724;23.250;2023-07-08T09:34:37;95017.13;;;24.96;100.00
15050;BME280;7622;42.724;23.250;2023-07-08T09:37:25;95009.44;;;25.18;100.00
15050;BME280;7622;42.724;23.250;2023-07-08T09:39:53;95010.06;;;25.31;100.00
15050;BME280;7622;42.724;23.250;2023-07-08T09:42:21;94999.16;;;26.04;100.00
15050;BME280;7622;42.724;23.250;2023-07-08T09:44:54;95002.28;;;26.83;97.15
15050;BME280;7622;42.724;23.250;2023-07-08T09:47:23;94981.59;;;27.30;94.62
15050;BME280;7622;42.724;23.250;2023-07-08T09:49:51;94986.72;;;27.76;86.42
15050;BME280;7622;42.724;23.250;2023-07-08T09:52:21;94987.38;;;28.00;83.70
15050;BME280;7622;42.724;23.250;2023-07-08T09:54:49;94985.09;;;28.09;83.16
15050;BME280;7622;42.724;23.250;2023-07-08T09:57:24;94987.19;;;27.73;80.56
15050;BME280;7622;42.724;23.250;2023-07-08T09:59:57;94974.09;;;28.22;78.38
15050;BME280;7622;42.724;23.250;2023-07-08T10:02:31;94956.47;;;28.21;79.86
15050;BME280;7622;42.724;23.250;2023-07-08T10:05:00;94986.00;;;28.31;78.63
15050;BME280;7622;42.724;23.250;2023-07-08T10:07:31;94978.31;;;28.18;79.16
15050;BME280;7622;42.724;23.250;2023-07-08T10:10:00;94982.41;;;28.42;78.98
15050;BME280;7622;42.724;23.250;2023-07-08T10:12:29;94978.88;;;28.58;79.95
15050;BME280;7622;42.724;23.250;2023-07-08T10:15:00;94980.28;;;28.44;78.07
15050;BME280;7622;42.724;23.250;2023-07-08T10:17:29;94981.03;;;28.40;76.77
15050;BME280;7622;42.724;23.250;2023-07-08T10:19:56;94982.19;;;28.66;76.67
15050;BME280;7622;42.724;23.250;2023-07-08T10:22:34;94973.06;;;29.05;76.21
15050;BME280;7622;42.724;23.250;2023-07-08T10:25:09;94973.56;;;29.02;71.84
15050;BME280;7622;42.724;23.250;2023-07-08T10:27:40;94958.34;;;29.29;71.10
15050;BME280;7622;42.724;23.250;2023-07-08T10:30:20;94967.25;;;29.35;69.75
15050;BME280;7622;42.724;23.250;2023-07-08T10:33:03;94952.47;;;29.32;70.16
15050;BME280;7622;42.724;23.250;2023-07-08T10:35:35;94956.72;;;29.02;70.35
15050;BME280;7622;42.724;23.250;2023-07-08T10:38:38;94952.38;;;29.22;74.05
15050;BME280;7622;42.724;23.250;2023-07-08T10:41:11;94947.88;;;29.50;66.66
15050;BME280;7622;42.724;23.250;2023-07-08T10:43:49;94948.44;;;29.52;67.59
15050;BME280;7622;42.724;23.250;2023-07-08T10:46:29;94953.47;;;29.26;67.57
15050;BME280;7622;42.724;23.250;2023-07-08T10:49:12;94951.56;;;29.22;65.18
15050;BME280;7622;42.724;23.250;2023-07-08T10:51:50;94949.88;;;29.11;71.55
15050;BME280;7622;42.724;23.250;2023-07-08T10:54:33;94947.75;;;29.40;69.58
15050;BME280;7622;42.724;23.250;2023-07-08T10:57:12;94933.19;;;29.30;70.37
15050;BME280;7622;42.724;23.250;2023-07-08T10:59:52;94938.97;;;29.17;70.99
15050;BME280;7622;42.724;23.250;2023-07-08T11:02:42;94937.28;;;29.11;69.40
15050;BME280;7622;42.724;23.250;2023-07-08T11:05:23;94930.97;;;29.22;65.42
15050;BME280;7622;42.724;23.250;2023-07-08T11:07:57;94930.78;;;29.29;67.63
15050;BME280;7622;42.724;23.250;2023-07-08T11:10:31;94929.28;;;29.38;64.83
15050;BME280;7622;42.724;23.250;2023-07-08T11:13:04;94923.97;;;29.16;68.25
15050;BME280;7622;42.724;23.250;2023-07-08T11:15:36;94926.72;;;29.26;66.66
15050;BME280;7622;42.724;23.250;2023-07-08T11:18:09;94925.50;;;29.12;69.46
15050;BME280;7622;42.724;23.250;2023-07-08T11:20:41;94922.59;;;29.14;68.32
15050;BME280;7622;42.724;23.250;2023-07-08T11:23:15;94910.19;;;28.81;66.09
15050;BME280;7622;42.724;23.250;2023-07-08T11:25:48;94918.84;;;28.88;68.44
15050;BME280;7622;42.724;23.250;2023-07-08T11:28:19;94917.16;;;29.04;68.50
15050;BME280;7622;42.724;23.250;2023-07-08T11:30:50;94919.66;;;29.15;68.81
15050;BME280;7622;42.724;23.250;2023-07-08T11:33:20;94922.38;;;29.20;69.17
15050;BME280;7622;42.724;23.250;2023-07-08T11:35:51;94927.22;;;28.96;70.64
15050;BME280;7622;42.724;23.250;2023-07-08T11:38:21;94901.41;;;28.64;71.81
15050;BME280;7622;42.724;23.250;2023-07-08T11:40:56;94913.25;;;28.29;75.07
15050;BME280;7622;42.724;23.250;2023-07-08T11:43:25;94920.03;;;27.81;77.73
15050;BME280;7622;42.724;23.250;2023-07-08T11:45:55;94908.38;;;27.37;75.21
15050;BME280;7622;42.724;23.250;2023-07-08T11:48:25;94913.53;;;27.44;77.93
15050;BME280;7622;42.724;23.250;2023-07-08T11:50:54;94864.78;;;27.65;75.98
15050;BME280;7622;42.724;23.250;2023-07-08T11:53:46;94911.81;;;28.21;70.70
15050;BME280;7622;42.724;23.250;2023-07-08T11:56:23;94916.59;;;28.03;73.50
15050;BME280;7622;42.724;23.250;2023-07-08T11:58:53;94915.78;;;28.02;74.59
15050;BME280;7622;42.724;23.250;2023-07-08T12:01:26;94915.03;;;27.68;71.02
15050;BME280;7622;42.724;23.250;2023-07-08T12:03:58;94915.47;;;27.49;72.64
15050;BME280;7622;42.724;23.250;2023-07-08T12:06:47;94918.75;;;27.84;73.53
15050;BME280;7622;42.724;23.250;2023-07-08T12:09:19;94919.13;;;27.59;75.90
15050;BME280;7622;42.724;23.250;2023-07-08T12:11:53;94914.94;;;27.01;76.77
15050;BME280;7622;42.724;23.250;2023-07-08T12:14:20;94918.94;;;27.04;78.34
15050;BME280;7622;42.724;23.250;2023-07-08T12:16:48;94913.75;;;27.26;73.99
15050;BME280;7622;42.724;23.250;2023-07-08T12:19:17;94916.47;;;27.59;78.86
15050;BME280;7622;42.724;23.250;2023-07-08T12:21:45;94900.69;;;27.74;73.96
15050;BME280;7622;42.724;23.250;2023-07-08T12:24:13;94904.31;;;27.35;78.44
15050;BME280;7622;42.724;23.250;2023-07-08T12:26:40;94917.69;;;27.68;77.66
15050;BME280;7622;42.724;23.250;2023-07-08T12:29:10;94909.38;;;27.65;79.21
15050;BME280;7622;42.724;23.250;2023-07-08T12:31:38;94903.03;;;27.54;80.68
15050;BME280;7622;42.724;23.250;2023-07-08T12:34:11;94907.34;;;27.10;81.78
15050;BME280;7622;42.724;23.250;2023-07-08T12:36:38;94903.63;;;27.11;81.17
15050;BME280;7622;42.724;23.250;2023-07-08T12:39:05;94902.22;;;27.37;81.79
15050;BME280;7622;42.724;23.250;2023-07-08T12:41:34;94894.41;;;27.19;84.02
15050;BME280;7622;42.724;23.250;2023-07-08T12:44:02;94889.56;;;27.16;79.66
15050;BME280;7622;42.724;23.250;2023-07-08T12:46:30;94886.38;;;26.74;85.18
15050;BME280;7622;42.724;23.250;2023-07-08T12:48:57;94896.53;;;26.77;86.12
15050;BME280;7622;42.724;23.250;2023-07-08T12:51:25;94890.78;;;27.08;83.20
15050;BME280;7622;42.724;23.250;2023-07-08T12:53:53;94894.56;;;26.95;86.82
15050;BME280;7622;42.724;23.250;2023-07-08T12:56:21;94894.41;;;27.02;85.93
15050;BME280;7622;42.724;23.250;2023-07-08T12:58:50;94896.41;;;27.12;86.73
15050;BME280;7622;42.724;23.250;2023-07-08T13:01:20;94899.38;;;26.98;80.72
15050;BME280;7622;42.724;23.250;2023-07-08T13:03:52;94901.00;;;26.99;80.92